createdAt,value
2019-02-23T00:00:49.219Z,1033.85
2019-02-23T00:01:58.873Z,1033.87
2019-02-23T00:03:08.371Z,1033.86
2019-02-23T00:04:17.592Z,1033.84
2019-02-23T00:05:26.548Z,1033.84
2019-02-23T00:06:36.431Z,1033.87
2019-02-23T00:07:46.407Z,1033.88
2019-02-23T00:08:55.942Z,1033.89
2019-02-23T00:10:05.335Z,1033.85
2019-02-23T00:11:14.985Z,1033.89
2019-02-23T00:12:24.232Z,1033.88
2019-02-23T00:13:33.664Z,1033.91
2019-02-23T00:14:43.342Z,1033.93
2019-02-23T00:15:52.987Z,1033.93
2019-02-23T00:17:02.616Z,1033.95
2019-02-23T00:18:12.751Z,1033.95
2019-02-23T00:19:25.021Z,1033.94
2019-02-23T00:20:34.948Z,1034
2019-02-23T00:21:44.635Z,1033.99
2019-02-23T00:22:53.982Z,1033.95
2019-02-23T00:24:03.523Z,1033.92
2019-02-23T00:25:12.657Z,1033.92
2019-02-23T00:26:21.757Z,1033.95
2019-02-23T00:27:31.151Z,1033.96
2019-02-23T00:28:40.831Z,1033.91
2019-02-23T00:29:50.343Z,1033.96
2019-02-23T00:30:59.493Z,1033.93
2019-02-23T00:32:08.872Z,1033.94
2019-02-23T00:33:18.661Z,1033.94
2019-02-23T00:34:28.384Z,1033.96
2019-02-23T00:35:37.823Z,1033.95
2019-02-23T00:36:47.411Z,1033.95
2019-02-23T00:37:56.856Z,1033.93
2019-02-23T00:39:06.474Z,1033.91
2019-02-23T00:40:16.103Z,1033.89
2019-02-23T00:41:25.239Z,1033.88
2019-02-23T00:42:34.663Z,1033.83
2019-02-23T00:43:43.993Z,1033.82
2019-02-23T00:44:53.347Z,1033.85
2019-02-23T00:46:02.351Z,1033.86
2019-02-23T00:47:12.175Z,1033.84
2019-02-23T00:48:21.238Z,1033.84
2019-02-23T00:49:36.069Z,1033.85
2019-02-23T00:50:45.989Z,1033.87
2019-02-23T00:51:55.135Z,1033.86
2019-02-23T00:53:04.526Z,1033.88
2019-02-23T00:54:14.039Z,1033.84
2019-02-23T00:55:23.127Z,1033.79
2019-02-23T00:56:32.366Z,1033.83
2019-02-23T00:57:41.177Z,1033.78
2019-02-23T00:58:50.541Z,1033.79
2019-02-23T00:59:59.936Z,1033.75
2019-02-23T01:01:09.594Z,1033.8
2019-02-23T01:02:18.987Z,1033.73
2019-02-23T01:03:28.095Z,1033.74
2019-02-23T01:04:37.159Z,1033.74
2019-02-23T01:05:46.506Z,1033.77
2019-02-23T01:06:55.824Z,1033.73
2019-02-23T01:08:05.143Z,1033.77
2019-02-23T01:09:14.255Z,1033.79
2019-02-23T01:10:24.125Z,1033.81
2019-02-23T01:11:33.237Z,1033.85
2019-02-23T01:12:42.645Z,1033.84
2019-02-23T01:13:52.059Z,1033.82
2019-02-23T01:15:00.973Z,1033.82
2019-02-23T01:16:10.117Z,1033.82
2019-02-23T01:17:19.398Z,1033.85
2019-02-23T01:18:28.969Z,1033.87
2019-02-23T01:19:47.248Z,1033.86
2019-02-23T01:20:56.539Z,1033.85
2019-02-23T01:22:06.595Z,1033.84
2019-02-23T01:23:16.300Z,1033.87
2019-02-23T01:24:26.087Z,1033.84
2019-02-23T01:25:35.489Z,1033.83
2019-02-23T01:26:44.816Z,1033.86
2019-02-23T01:27:54.072Z,1033.83
2019-02-23T01:29:03.239Z,1033.84
2019-02-23T01:30:12.910Z,1033.82
2019-02-23T01:31:22.381Z,1033.82
2019-02-23T01:32:32.448Z,1033.78
2019-02-23T01:33:41.863Z,1033.78
2019-02-23T01:34:50.949Z,1033.78
2019-02-23T01:35:59.822Z,1033.78
2019-02-23T01:37:08.911Z,1033.77
2019-02-23T01:38:18.018Z,1033.74
2019-02-23T01:39:27.374Z,1033.73
2019-02-23T01:40:37.005Z,1033.71
2019-02-23T01:41:46.648Z,1033.72
2019-02-23T01:42:56.238Z,1033.75
2019-02-23T01:44:05.831Z,1033.73
2019-02-23T01:45:14.835Z,1033.76
2019-02-23T01:46:24.471Z,1033.76
2019-02-23T01:47:33.905Z,1033.78
2019-02-23T01:48:43.571Z,1033.78
2019-02-23T01:49:58.708Z,1033.83
2019-02-23T01:51:08.784Z,1033.86
2019-02-23T01:52:18.126Z,1033.79
2019-02-23T01:53:27.721Z,1033.85
2019-02-23T01:54:37.163Z,1033.9
2019-02-23T01:55:46.249Z,1033.88
2019-02-23T01:56:56.070Z,1033.86
2019-02-23T01:58:05.413Z,1033.86
2019-02-23T01:59:14.980Z,1033.84
2019-02-23T02:00:24.265Z,1033.8
2019-02-23T02:01:33.950Z,1033.82
2019-02-23T02:02:43.197Z,1033.82
2019-02-23T02:03:52.302Z,1033.81
2019-02-23T02:05:01.663Z,1033.76
2019-02-23T02:06:11.013Z,1033.79
2019-02-23T02:07:20.059Z,1033.8
2019-02-23T02:08:29.197Z,1033.79
2019-02-23T02:09:38.620Z,1033.85
2019-02-23T02:10:48.499Z,1033.82
2019-02-23T02:11:57.868Z,1033.83
2019-02-23T02:13:07.323Z,1033.85
2019-02-23T02:14:16.693Z,1033.87
2019-02-23T02:15:26.102Z,1033.89
2019-02-23T02:16:35.828Z,1033.9
2019-02-23T02:17:44.952Z,1033.91
2019-02-23T02:18:54.647Z,1033.92
2019-02-23T02:20:10.754Z,1033.92
2019-02-23T02:21:20.812Z,1033.95
2019-02-23T02:22:30.133Z,1033.95
2019-02-23T02:23:39.335Z,1033.92
2019-02-23T02:24:48.788Z,1033.95
2019-02-23T02:25:58.622Z,1033.93
2019-02-23T02:27:08.204Z,1033.95
2019-02-23T02:28:17.371Z,1033.93
2019-02-23T02:29:26.919Z,1033.87
2019-02-23T02:30:36.006Z,1033.88
2019-02-23T02:31:46.170Z,1033.86
2019-02-23T02:32:55.598Z,1033.83
2019-02-23T02:34:04.876Z,1033.84
2019-02-23T02:35:13.923Z,1033.81
2019-02-23T02:36:23.457Z,1033.85
2019-02-23T02:37:32.780Z,1033.83
2019-02-23T02:38:42.664Z,1033.83
2019-02-23T02:39:51.925Z,1033.84
2019-02-23T02:41:01.461Z,1033.8
2019-02-23T02:42:11.280Z,1033.82
2019-02-23T02:43:20.605Z,1033.84
2019-02-23T02:44:30.384Z,1033.83
2019-02-23T02:45:40.031Z,1033.83
2019-02-23T02:46:49.572Z,1033.83
2019-02-23T02:47:59.581Z,1033.78
2019-02-23T02:49:08.919Z,1033.77
2019-02-23T02:50:24.102Z,1033.77
2019-02-23T02:51:34.606Z,1033.76
2019-02-23T02:52:43.775Z,1033.72
2019-02-23T02:53:53.309Z,1033.72
2019-02-23T02:55:02.581Z,1033.68
2019-02-23T02:56:11.653Z,1033.7
2019-02-23T02:57:21.247Z,1033.72
2019-02-23T02:58:31.011Z,1033.68
2019-02-23T02:59:40.624Z,1033.72
2019-02-23T03:00:49.642Z,1033.68
2019-02-23T03:01:59.644Z,1033.66
2019-02-23T03:03:08.692Z,1033.73
2019-02-23T03:04:18.260Z,1033.69
2019-02-23T03:05:28.132Z,1033.69
2019-02-23T03:06:37.418Z,1033.68
2019-02-23T03:07:47.020Z,1033.7
2019-02-23T03:08:56.579Z,1033.7
2019-02-23T03:10:05.907Z,1033.63
2019-02-23T03:11:15.300Z,1033.7
2019-02-23T03:12:25.138Z,1033.67
2019-02-23T03:13:34.393Z,1033.67
2019-02-23T03:14:43.784Z,1033.71
2019-02-23T03:15:53.620Z,1033.72
2019-02-23T03:17:02.630Z,1033.68
2019-02-23T03:18:11.981Z,1033.71
2019-02-23T03:19:20.881Z,1033.68
2019-02-23T03:20:36.457Z,1033.66
2019-02-23T03:21:46.494Z,1033.66
2019-02-23T03:22:55.851Z,1033.6
2019-02-23T03:24:04.854Z,1033.64
2019-02-23T03:25:14.612Z,1033.6
2019-02-23T03:26:23.709Z,1033.61
2019-02-23T03:27:33.021Z,1033.65
2019-02-23T03:28:42.797Z,1033.67
2019-02-23T03:29:52.375Z,1033.64
2019-02-23T03:31:02.130Z,1033.64
2019-02-23T03:32:12.435Z,1033.57
2019-02-23T03:33:22.486Z,1033.57
2019-02-23T03:34:32.599Z,1033.62
2019-02-23T03:35:42.406Z,1033.64
2019-02-23T03:36:51.497Z,1033.57
2019-02-23T03:38:00.798Z,1033.55
2019-02-23T03:39:10.415Z,1033.62
2019-02-23T03:40:20.085Z,1033.66
2019-02-23T03:41:29.921Z,1033.66
2019-02-23T03:42:39.585Z,1033.69
2019-02-23T03:43:49.688Z,1033.71
2019-02-23T03:44:58.745Z,1033.69
2019-02-23T03:46:08.580Z,1033.72
2019-02-23T03:47:18.393Z,1033.71
2019-02-23T03:48:27.747Z,1033.68
2019-02-23T03:49:37.070Z,1033.67
2019-02-23T03:50:49.274Z,1033.66
2019-02-23T03:51:59.204Z,1033.7
2019-02-23T03:53:09.079Z,1033.68
2019-02-23T03:54:18.999Z,1033.7
2019-02-23T03:55:28.636Z,1033.68
2019-02-23T03:56:38.030Z,1033.72
2019-02-23T03:57:46.818Z,1033.76
2019-02-23T03:58:55.869Z,1033.77
2019-02-23T04:00:05.137Z,1033.75
2019-02-23T04:01:14.760Z,1033.69
2019-02-23T04:02:24.051Z,1033.67
2019-02-23T04:03:33.612Z,1033.67
2019-02-23T04:04:43.051Z,1033.63
2019-02-23T04:05:52.102Z,1033.64
2019-02-23T04:07:01.454Z,1033.65
2019-02-23T04:08:11.233Z,1033.67
2019-02-23T04:09:20.797Z,1033.67
2019-02-23T04:10:30.948Z,1033.66
2019-02-23T04:11:40.754Z,1033.64
2019-02-23T04:12:50.793Z,1033.63
2019-02-23T04:14:00.170Z,1033.59
2019-02-23T04:15:10.367Z,1033.6
2019-02-23T04:16:19.886Z,1033.59
2019-02-23T04:17:29.522Z,1033.64
2019-02-23T04:18:38.544Z,1033.68
2019-02-23T04:19:48.602Z,1033.66
2019-02-23T04:21:01.544Z,1033.6
2019-02-23T04:22:11.574Z,1033.66
2019-02-23T04:23:20.655Z,1033.67
2019-02-23T04:24:30.489Z,1033.69
2019-02-23T04:25:39.512Z,1033.73
2019-02-23T04:26:48.587Z,1033.77
2019-02-23T04:27:57.919Z,1033.74
2019-02-23T04:29:07.422Z,1033.76
2019-02-23T04:30:17.255Z,1033.79
2019-02-23T04:31:27.322Z,1033.86
2019-02-23T04:32:36.634Z,1033.83
2019-02-23T04:33:46.024Z,1033.84
2019-02-23T04:34:55.086Z,1033.85
2019-02-23T04:36:04.894Z,1033.9
2019-02-23T04:37:13.728Z,1033.9
2019-02-23T04:38:22.768Z,1033.92
2019-02-23T04:39:32.291Z,1033.94
2019-02-23T04:40:41.570Z,1033.93
2019-02-23T04:41:51.415Z,1033.94
2019-02-23T04:43:00.465Z,1033.94
2019-02-23T04:44:09.790Z,1033.93
2019-02-23T04:45:19.080Z,1033.96
2019-02-23T04:46:28.689Z,1033.97
2019-02-23T04:47:37.977Z,1033.97
2019-02-23T04:48:47.580Z,1033.97
2019-02-23T04:49:57.171Z,1034.02
2019-02-23T04:51:14.073Z,1033.99
2019-02-23T04:52:24.501Z,1034.05
2019-02-23T04:53:34.633Z,1034.06
2019-02-23T04:54:43.963Z,1034.06
2019-02-23T04:55:53.271Z,1034.05
2019-02-23T04:57:03.077Z,1034.09
2019-02-23T04:58:12.802Z,1034.11
2019-02-23T04:59:22.349Z,1034.12
2019-02-23T05:00:32.176Z,1034.13
2019-02-23T05:01:41.505Z,1034.11
2019-02-23T05:02:51.287Z,1034.19
2019-02-23T05:04:01.210Z,1034.21
2019-02-23T05:05:10.755Z,1034.21
2019-02-23T05:06:19.931Z,1034.2
2019-02-23T05:07:29.361Z,1034.21
2019-02-23T05:08:38.900Z,1034.2
2019-02-23T05:09:48.013Z,1034.21
2019-02-23T05:10:57.283Z,1034.24
2019-02-23T05:12:06.846Z,1034.2
2019-02-23T05:13:15.967Z,1034.21
2019-02-23T05:14:25.757Z,1034.23
2019-02-23T05:15:35.510Z,1034.23
2019-02-23T05:16:44.574Z,1034.21
2019-02-23T05:17:55.516Z,1034.24
2019-02-23T05:19:05.038Z,1034.3
2019-02-23T05:20:14.465Z,1034.35
2019-02-23T05:21:26.598Z,1034.34
2019-02-23T05:22:36.525Z,1034.34
2019-02-23T05:23:45.972Z,1034.31
2019-02-23T05:24:55.011Z,1034.35
2019-02-23T05:26:04.895Z,1034.34
2019-02-23T05:27:14.200Z,1034.36
2019-02-23T05:28:23.765Z,1034.37
2019-02-23T05:29:33.119Z,1034.36
2019-02-23T05:30:43.181Z,1034.34
2019-02-23T05:31:52.812Z,1034.39
2019-02-23T05:33:01.810Z,1034.33
2019-02-23T05:34:11.115Z,1034.4
2019-02-23T05:35:20.713Z,1034.34
2019-02-23T05:36:30.506Z,1034.34
2019-02-23T05:37:40.041Z,1034.31
2019-02-23T05:38:49.644Z,1034.34
2019-02-23T05:39:59.541Z,1034.29
2019-02-23T05:41:09.033Z,1034.31
2019-02-23T05:42:18.637Z,1034.32
2019-02-23T05:43:27.717Z,1034.3
2019-02-23T05:44:36.741Z,1034.3
2019-02-23T05:45:46.549Z,1034.27
2019-02-23T05:46:56.178Z,1034.29
2019-02-23T05:48:05.545Z,1034.29
2019-02-23T05:49:15.116Z,1034.3
2019-02-23T05:50:24.658Z,1034.29
2019-02-23T05:51:38.513Z,1034.34
2019-02-23T05:52:48.299Z,1034.32
2019-02-23T05:53:57.879Z,1034.35
2019-02-23T05:55:07.981Z,1034.32
2019-02-23T05:56:17.508Z,1034.27
2019-02-23T05:57:26.828Z,1034.29
2019-02-23T05:58:35.674Z,1034.33
2019-02-23T05:59:44.706Z,1034.31
2019-02-23T06:00:54.228Z,1034.29
2019-02-23T06:02:03.754Z,1034.33
2019-02-23T06:03:13.288Z,1034.29
2019-02-23T06:04:22.780Z,1034.33
2019-02-23T06:05:32.605Z,1034.29
2019-02-23T06:06:42.085Z,1034.34
2019-02-23T06:07:51.858Z,1034.31
2019-02-23T06:09:01.461Z,1034.3
2019-02-23T06:10:10.747Z,1034.35
2019-02-23T06:11:20.329Z,1034.4
2019-02-23T06:12:30.112Z,1034.39
2019-02-23T06:13:39.743Z,1034.44
2019-02-23T06:14:49.074Z,1034.42
2019-02-23T06:15:58.872Z,1034.48
2019-02-23T06:17:08.413Z,1034.49
2019-02-23T06:18:17.748Z,1034.45
2019-02-23T06:19:27.333Z,1034.51
2019-02-23T06:20:36.925Z,1034.45
2019-02-23T06:21:53.300Z,1034.48
2019-02-23T06:23:03.359Z,1034.52
2019-02-23T06:24:13.416Z,1034.51
2019-02-23T06:25:22.462Z,1034.55
2019-02-23T06:26:32.660Z,1034.59
2019-02-23T06:27:41.975Z,1034.57
2019-02-23T06:28:51.287Z,1034.6
2019-02-23T06:30:00.620Z,1034.6
2019-02-23T06:31:10.571Z,1034.6
2019-02-23T06:32:19.981Z,1034.62
2019-02-23T06:33:29.240Z,1034.63
2019-02-23T06:34:38.815Z,1034.6
2019-02-23T06:35:48.842Z,1034.62
2019-02-23T06:36:57.892Z,1034.64
2019-02-23T06:38:07.104Z,1034.66
2019-02-23T06:39:16.882Z,1034.64
2019-02-23T06:40:26.426Z,1034.66
2019-02-23T06:41:35.722Z,1034.67
2019-02-23T06:42:45.292Z,1034.64
2019-02-23T06:43:54.299Z,1034.66
2019-02-23T06:45:03.630Z,1034.69
2019-02-23T06:46:12.508Z,1034.7
2019-02-23T06:47:21.309Z,1034.72
2019-02-23T06:48:30.867Z,1034.75
2019-02-23T06:49:40.154Z,1034.77
2019-02-23T06:50:49.189Z,1034.77
2019-02-23T06:52:04.164Z,1034.84
2019-02-23T06:53:14.180Z,1034.8
2019-02-23T06:54:23.769Z,1034.87
2019-02-23T06:55:32.800Z,1034.93
2019-02-23T06:56:42.042Z,1034.89
2019-02-23T06:57:51.099Z,1034.84
2019-02-23T06:59:00.679Z,1034.89
2019-02-23T07:00:09.783Z,1034.86
2019-02-23T07:01:19.137Z,1034.92
2019-02-23T07:02:28.429Z,1034.89
2019-02-23T07:03:38.066Z,1034.92
2019-02-23T07:04:48.111Z,1034.85
2019-02-23T07:05:57.728Z,1034.85
2019-02-23T07:07:07.542Z,1034.87
2019-02-23T07:08:17.290Z,1034.95
2019-02-23T07:09:26.575Z,1034.94
2019-02-23T07:10:35.964Z,1034.95
2019-02-23T07:11:45.258Z,1034.93
2019-02-23T07:12:54.314Z,1034.89
2019-02-23T07:14:03.537Z,1034.93
2019-02-23T07:15:12.594Z,1034.93
2019-02-23T07:16:22.129Z,1034.85
2019-02-23T07:17:31.686Z,1034.88
2019-02-23T07:18:40.495Z,1034.83
2019-02-23T07:19:49.782Z,1034.81
2019-02-23T07:20:59.287Z,1034.79
2019-02-23T07:22:15.298Z,1034.75
2019-02-23T07:23:25.001Z,1034.77
2019-02-23T07:24:34.528Z,1034.78
2019-02-23T07:25:44.033Z,1034.76
2019-02-23T07:26:53.593Z,1034.75
2019-02-23T07:28:03.060Z,1034.76
2019-02-23T07:29:13.652Z,1034.69
2019-02-23T07:30:22.726Z,1034.75
2019-02-23T07:31:32.097Z,1034.78
2019-02-23T07:32:41.959Z,1034.73
2019-02-23T07:33:51.345Z,1034.71
2019-02-23T07:35:00.816Z,1034.71
2019-02-23T07:36:10.389Z,1034.75
2019-02-23T07:37:19.643Z,1034.73
2019-02-23T07:38:28.658Z,1034.71
2019-02-23T07:39:40.341Z,1034.72
2019-02-23T07:40:49.913Z,1034.73
2019-02-23T07:41:59.198Z,1034.78
2019-02-23T07:43:08.960Z,1034.79
2019-02-23T07:44:17.837Z,1034.74
2019-02-23T07:45:27.480Z,1034.74
2019-02-23T07:46:36.837Z,1034.8
2019-02-23T07:47:45.909Z,1034.79
2019-02-23T07:48:55.497Z,1034.72
2019-02-23T07:50:04.837Z,1034.76
2019-02-23T07:51:14.211Z,1034.71
2019-02-23T07:52:26.436Z,1034.75
2019-02-23T07:53:36.582Z,1034.71
2019-02-23T07:54:45.891Z,1034.7
2019-02-23T07:55:55.408Z,1034.7
2019-02-23T07:57:04.992Z,1034.67
2019-02-23T07:58:14.529Z,1034.69
2019-02-23T07:59:24.068Z,1034.66
2019-02-23T08:00:33.618Z,1034.64
2019-02-23T08:01:42.916Z,1034.62
2019-02-23T08:02:51.934Z,1034.63
2019-02-23T08:04:01.713Z,1034.67
2019-02-23T08:05:10.984Z,1034.66
2019-02-23T08:06:20.531Z,1034.7
2019-02-23T08:07:30.358Z,1034.66
2019-02-23T08:08:42.699Z,1034.65
2019-02-23T08:09:52.457Z,1034.67
2019-02-23T08:11:02.221Z,1034.66
2019-02-23T08:12:11.233Z,1034.65
2019-02-23T08:13:20.477Z,1034.64
2019-02-23T08:14:29.750Z,1034.64
2019-02-23T08:15:39.271Z,1034.61
2019-02-23T08:16:48.323Z,1034.56
2019-02-23T08:17:57.093Z,1034.55
2019-02-23T08:19:06.929Z,1034.56
2019-02-23T08:20:16.784Z,1034.55
2019-02-23T08:21:26.815Z,1034.53
2019-02-23T08:22:37.496Z,1034.49
2019-02-23T08:23:46.719Z,1034.5
2019-02-23T08:25:08.597Z,1034.51
2019-02-23T08:26:17.937Z,1034.47
2019-02-23T08:27:27.297Z,1034.52
2019-02-23T08:28:37.037Z,1034.42
2019-02-23T08:29:46.376Z,1034.4
2019-02-23T08:30:55.954Z,1034.38
2019-02-23T08:32:05.587Z,1034.32
2019-02-23T08:33:15.162Z,1034.39
2019-02-23T08:34:25.005Z,1034.34
2019-02-23T08:35:34.689Z,1034.28
2019-02-23T08:36:44.232Z,1034.26
2019-02-23T08:37:53.477Z,1034.33
2019-02-23T08:39:02.536Z,1034.36
2019-02-23T08:40:11.567Z,1034.35
2019-02-23T08:41:21.151Z,1034.35
2019-02-23T08:42:30.681Z,1034.36
2019-02-23T08:43:40.744Z,1034.38
2019-02-23T08:44:50.290Z,1034.36
2019-02-23T08:45:59.846Z,1034.36
2019-02-23T08:47:09.075Z,1034.31
2019-02-23T08:48:18.090Z,1034.33
2019-02-23T08:49:27.301Z,1034.36
2019-02-23T08:50:36.346Z,1034.32
2019-02-23T08:51:45.920Z,1034.28
2019-02-23T08:52:54.917Z,1034.34
2019-02-23T08:54:04.441Z,1034.33
2019-02-23T08:55:13.539Z,1034.3
2019-02-23T08:56:22.824Z,1034.31
2019-02-23T08:57:33.943Z,1034.31
2019-02-23T08:58:42.945Z,1034.38
2019-02-23T08:59:52.482Z,1034.37
2019-02-23T09:01:01.836Z,1034.36
2019-02-23T09:02:10.887Z,1034.34
2019-02-23T09:03:20.174Z,1034.29
2019-02-23T09:04:29.426Z,1034.29
2019-02-23T09:05:38.697Z,1034.34
2019-02-23T09:06:47.775Z,1034.29
2019-02-23T09:07:57.522Z,1034.27
2019-02-23T09:09:08.156Z,1034.25
2019-02-23T09:10:17.773Z,1034.24
2019-02-23T09:11:27.268Z,1034.26
2019-02-23T09:12:36.732Z,1034.25
2019-02-23T09:13:46.381Z,1034.25
2019-02-23T09:14:55.888Z,1034.35
2019-02-23T09:16:05.288Z,1034.38
2019-02-23T09:17:14.686Z,1034.36
2019-02-23T09:18:24.281Z,1034.42
2019-02-23T09:19:33.558Z,1034.41
2019-02-23T09:20:42.519Z,1034.42
2019-02-23T09:21:54.238Z,1034.43
2019-02-23T09:23:03.516Z,1034.44
2019-02-23T09:24:13.077Z,1034.43
2019-02-23T09:25:22.068Z,1034.44
2019-02-23T09:26:31.305Z,1034.44
2019-02-23T09:27:40.591Z,1034.44
2019-02-23T09:28:50.227Z,1034.48
2019-02-23T09:29:59.950Z,1034.47
2019-02-23T09:31:09.180Z,1034.45
2019-02-23T09:32:18.501Z,1034.42
2019-02-23T09:33:27.736Z,1034.39
2019-02-23T09:34:36.984Z,1034.36
2019-02-23T09:35:46.250Z,1034.4
2019-02-23T09:36:55.366Z,1034.45
2019-02-23T09:38:04.647Z,1034.43
2019-02-23T09:39:13.909Z,1034.37
2019-02-23T09:40:23.899Z,1034.43
2019-02-23T09:41:33.164Z,1034.41
2019-02-23T09:42:42.973Z,1034.41
2019-02-23T09:43:52.309Z,1034.34
2019-02-23T09:45:01.579Z,1034.34
2019-02-23T09:46:10.857Z,1034.32
2019-02-23T09:47:20.360Z,1034.32
2019-02-23T09:48:29.610Z,1034.29
2019-02-23T09:49:39.361Z,1034.3
2019-02-23T09:50:48.371Z,1034.35
2019-02-23T09:51:57.605Z,1034.29
2019-02-23T09:53:10.959Z,1034.27
2019-02-23T09:54:21.262Z,1034.27
2019-02-23T09:55:33.299Z,1034.29
2019-02-23T09:56:42.607Z,1034.33
2019-02-23T09:57:52.207Z,1034.36
2019-02-23T09:59:01.215Z,1034.41
2019-02-23T10:00:10.295Z,1034.42
2019-02-23T10:01:19.568Z,1034.45
2019-02-23T10:02:28.833Z,1034.49
2019-02-23T10:03:37.819Z,1034.46
2019-02-23T10:04:47.135Z,1034.44
2019-02-23T10:05:56.508Z,1034.49
2019-02-23T10:07:06.140Z,1034.49
2019-02-23T10:08:15.985Z,1034.48
2019-02-23T10:09:25.291Z,1034.51
2019-02-23T10:10:35.108Z,1034.46
2019-02-23T10:11:44.211Z,1034.52
2019-02-23T10:12:53.278Z,1034.54
2019-02-23T10:14:02.580Z,1034.55
2019-02-23T10:15:14.596Z,1034.56
2019-02-23T10:16:24.388Z,1034.59
2019-02-23T10:17:34.163Z,1034.59
2019-02-23T10:18:44.199Z,1034.57
2019-02-23T10:19:53.967Z,1034.62
2019-02-23T10:21:03.167Z,1034.51
2019-02-23T10:22:12.193Z,1034.53
2019-02-23T10:23:22.231Z,1034.48
2019-02-23T10:24:32.024Z,1034.49
2019-02-23T10:25:41.607Z,1034.48
2019-02-23T10:26:51.133Z,1034.53
2019-02-23T10:28:00.168Z,1034.41
2019-02-23T10:29:09.327Z,1034.44
2019-02-23T10:30:18.597Z,1034.4
2019-02-23T10:31:27.916Z,1034.43
2019-02-23T10:32:37.243Z,1034.4
2019-02-23T10:33:47.741Z,1034.36
2019-02-23T10:34:57.023Z,1034.34
2019-02-23T10:36:06.817Z,1034.37
2019-02-23T10:37:16.380Z,1034.43
2019-02-23T10:38:25.193Z,1034.44
2019-02-23T10:39:34.310Z,1034.45
2019-02-23T10:40:43.963Z,1034.4
2019-02-23T10:41:54.095Z,1034.33
2019-02-23T10:43:02.915Z,1034.32
2019-02-23T10:44:12.290Z,1034.33
2019-02-23T10:45:22.180Z,1034.32
2019-02-23T10:46:31.464Z,1034.34
2019-02-23T10:47:40.942Z,1034.34
2019-02-23T10:48:52.618Z,1034.32
2019-02-23T10:50:03.145Z,1034.31
2019-02-23T10:51:13.312Z,1034.33
2019-02-23T10:52:22.991Z,1034.36
2019-02-23T10:53:33.180Z,1034.31
2019-02-23T10:54:42.407Z,1034.3
2019-02-23T10:55:54.159Z,1034.29
2019-02-23T10:57:03.743Z,1034.26
2019-02-23T10:58:12.852Z,1034.27
2019-02-23T10:59:21.712Z,1034.24
2019-02-23T11:00:30.788Z,1034.19
2019-02-23T11:01:39.569Z,1034.18
2019-02-23T11:02:48.642Z,1034.18
2019-02-23T11:03:58.348Z,1034.16
2019-02-23T11:05:07.781Z,1034.12
2019-02-23T11:06:17.162Z,1034.11
2019-02-23T11:07:26.436Z,1034.15
2019-02-23T11:08:36.440Z,1034.09
2019-02-23T11:09:45.207Z,1034.07
2019-02-23T11:10:53.965Z,1034
2019-02-23T11:12:03.839Z,1034.01
2019-02-23T11:13:13.428Z,1034.06
2019-02-23T11:14:23.250Z,1034.04
2019-02-23T11:15:32.323Z,1034.09
2019-02-23T11:16:41.836Z,1034.09
2019-02-23T11:17:51.471Z,1034.08
2019-02-23T11:19:03.169Z,1034.06
2019-02-23T11:20:12.524Z,1034.03
2019-02-23T11:21:22.123Z,1034.04
2019-02-23T11:22:31.445Z,1034.04
2019-02-23T11:23:44.034Z,1033.99
2019-02-23T11:24:53.976Z,1034.05
2019-02-23T11:26:03.303Z,1033.99
2019-02-23T11:27:12.685Z,1034.04
2019-02-23T11:28:22.353Z,1033.99
2019-02-23T11:29:31.501Z,1033.95
2019-02-23T11:30:41.386Z,1033.94
2019-02-23T11:31:50.714Z,1033.94
2019-02-23T11:32:59.823Z,1033.89
2019-02-23T11:34:08.650Z,1033.87
2019-02-23T11:35:18.064Z,1033.85
2019-02-23T11:36:27.255Z,1033.86
2019-02-23T11:37:36.939Z,1033.79
2019-02-23T11:38:46.327Z,1033.79
2019-02-23T11:39:55.373Z,1033.77
2019-02-23T11:41:04.220Z,1033.78
2019-02-23T11:42:13.399Z,1033.71
2019-02-23T11:43:23.182Z,1033.7
2019-02-23T11:44:32.212Z,1033.73
2019-02-23T11:45:41.730Z,1033.71
2019-02-23T11:46:59.726Z,1033.66
2019-02-23T11:48:09.534Z,1033.7
2019-02-23T11:49:19.603Z,1033.67
2019-02-23T11:50:29.365Z,1033.63
2019-02-23T11:51:39.352Z,1033.67
2019-02-23T11:52:48.615Z,1033.7
2019-02-23T11:53:57.930Z,1033.71
2019-02-23T11:55:06.659Z,1033.7
2019-02-23T11:56:15.669Z,1033.65
2019-02-23T11:57:24.906Z,1033.64
2019-02-23T11:58:34.134Z,1033.61
2019-02-23T11:59:42.944Z,1033.6
2019-02-23T12:00:52.093Z,1033.57
2019-02-23T12:02:01.105Z,1033.53
2019-02-23T12:03:10.383Z,1033.55
2019-02-23T12:04:19.609Z,1033.52
2019-02-23T12:05:29.685Z,1033.49
2019-02-23T12:06:39.197Z,1033.42
2019-02-23T12:07:48.423Z,1033.38
2019-02-23T12:08:57.972Z,1033.4
2019-02-23T12:10:07.721Z,1033.41
2019-02-23T12:11:17.432Z,1033.42
2019-02-23T12:12:27.044Z,1033.36
2019-02-23T12:13:36.591Z,1033.33
2019-02-23T12:14:45.636Z,1033.29
2019-02-23T12:15:54.412Z,1033.25
2019-02-23T12:17:03.397Z,1033.24
2019-02-23T12:18:12.473Z,1033.22
2019-02-23T12:19:21.713Z,1033.21
2019-02-23T12:20:30.748Z,1033.21
2019-02-23T12:21:40.039Z,1033.2
2019-02-23T12:22:49.081Z,1033.21
2019-02-23T12:24:05.610Z,1033.2
2019-02-23T12:25:16.264Z,1033.16
2019-02-23T12:26:26.206Z,1033.18
2019-02-23T12:27:35.516Z,1033.12
2019-02-23T12:28:44.598Z,1033.06
2019-02-23T12:29:53.559Z,1033.03
2019-02-23T12:31:03.224Z,1033.03
2019-02-23T12:32:12.782Z,1032.92
2019-02-23T12:33:21.856Z,1033
2019-02-23T12:34:31.161Z,1032.97
2019-02-23T12:35:40.486Z,1033.02
2019-02-23T12:36:49.879Z,1033
2019-02-23T12:38:00.539Z,1033.02
2019-02-23T12:39:10.363Z,1032.98
2019-02-23T12:40:19.733Z,1033.01
2019-02-23T12:41:28.821Z,1032.97
2019-02-23T12:42:38.859Z,1032.96
2019-02-23T12:43:48.430Z,1032.91
2019-02-23T12:44:57.486Z,1032.93
2019-02-23T12:46:06.791Z,1032.92
2019-02-23T12:47:16.410Z,1032.9
2019-02-23T12:48:25.838Z,1032.88
2019-02-23T12:49:35.404Z,1032.91
2019-02-23T12:50:44.985Z,1032.94
2019-02-23T12:51:54.078Z,1032.91
2019-02-23T12:53:03.427Z,1032.9
2019-02-23T12:54:16.690Z,1032.92
2019-02-23T12:55:26.342Z,1032.96
2019-02-23T12:56:35.854Z,1032.96
2019-02-23T12:57:45.140Z,1032.93
2019-02-23T12:58:54.170Z,1032.96
2019-02-23T13:00:03.679Z,1032.97
2019-02-23T13:01:13.215Z,1033
2019-02-23T13:02:22.762Z,1032.97
2019-02-23T13:03:31.882Z,1032.97
2019-02-23T13:04:40.923Z,1032.97
2019-02-23T13:05:50.394Z,1032.94
2019-02-23T13:06:59.652Z,1032.97
2019-02-23T13:08:08.698Z,1032.92
2019-02-23T13:09:18.417Z,1032.92
2019-02-23T13:10:27.790Z,1032.89
2019-02-23T13:11:37.081Z,1032.87
2019-02-23T13:12:46.266Z,1032.8
2019-02-23T13:13:55.973Z,1032.83
2019-02-23T13:15:04.991Z,1032.77
2019-02-23T13:16:14.631Z,1032.77
2019-02-23T13:17:23.878Z,1032.76
2019-02-23T13:18:33.219Z,1032.7
2019-02-23T13:19:43.005Z,1032.72
2019-02-23T13:20:53.131Z,1032.66
2019-02-23T13:22:02.982Z,1032.65
2019-02-23T13:23:12.267Z,1032.62
2019-02-23T13:24:28.023Z,1032.66
2019-02-23T13:25:37.945Z,1032.6
2019-02-23T13:26:47.377Z,1032.61
2019-02-23T13:27:57.104Z,1032.59
2019-02-23T13:29:06.321Z,1032.6
2019-02-23T13:30:15.741Z,1032.62
2019-02-23T13:31:25.480Z,1032.59
2019-02-23T13:32:34.440Z,1032.6
2019-02-23T13:33:44.424Z,1032.6
2019-02-23T13:34:54.630Z,1032.64
2019-02-23T13:36:03.706Z,1032.63
2019-02-23T13:37:13.486Z,1032.64
2019-02-23T13:38:22.817Z,1032.67
2019-02-23T13:39:31.949Z,1032.64
2019-02-23T13:40:43.553Z,1032.66
2019-02-23T13:41:53.237Z,1032.67
2019-02-23T13:43:02.888Z,1032.64
2019-02-23T13:44:12.119Z,1032.68
2019-02-23T13:45:24.412Z,1032.62
2019-02-23T13:46:33.606Z,1032.62
2019-02-23T13:47:42.887Z,1032.62
2019-02-23T13:48:52.852Z,1032.65
2019-02-23T13:50:02.529Z,1032.65
2019-02-23T13:51:12.159Z,1032.63
2019-02-23T13:52:21.121Z,1032.7
2019-02-23T13:53:30.973Z,1032.68
2019-02-23T13:54:40.174Z,1032.67
2019-02-23T13:55:48.949Z,1032.69
2019-02-23T13:56:57.968Z,1032.66
2019-02-23T13:58:07.433Z,1032.67
2019-02-23T13:59:19.350Z,1032.66
2019-02-23T14:00:28.798Z,1032.7
2019-02-23T14:01:38.295Z,1032.66
2019-02-23T14:02:47.620Z,1032.69
2019-02-23T14:03:57.043Z,1032.74
2019-02-23T14:05:06.417Z,1032.76
2019-02-23T14:06:15.451Z,1032.79